createdAt,value
2022-08-12T00:00:06.292Z,17.90
2022-08-12T00:02:51.742Z,17.80
2022-08-12T00:05:39.949Z,17.80
2022-08-12T00:08:45.706Z,17.80
2022-08-12T00:11:32.379Z,17.70
2022-08-12T00:14:18.134Z,17.70
2022-08-12T00:17:03.596Z,17.60
2022-08-12T00:19:49.269Z,17.70
2022-08-12T00:22:34.738Z,17.70
2022-08-12T00:25:20.521Z,17.70
2022-08-12T00:28:26.698Z,17.70
2022-08-12T00:31:11.927Z,17.60
2022-08-12T00:33:57.282Z,17.50
2022-08-12T00:36:50.253Z,17.40
2022-08-12T00:39:35.895Z,17.40
2022-08-12T00:42:12.381Z,17.40
2022-08-12T00:44:40.915Z,17.30
2022-08-12T00:47:24.894Z,17.30
2022-08-12T00:49:52.973Z,17.30
2022-08-12T00:52:20.641Z,17.20
2022-08-12T00:54:58.588Z,17.20
2022-08-12T00:57:31.392Z,17.20
2022-08-12T01:00:00.902Z,17.30
2022-08-12T01:02:33.531Z,17.20
2022-08-12T01:05:24.346Z,17.20
2022-08-12T01:08:09.827Z,17.20
2022-08-12T01:10:57.896Z,17.10
2022-08-12T01:13:25.264Z,17.00
2022-08-12T01:15:58.056Z,17.00
2022-08-12T01:18:32.745Z,16.90
2022-08-12T01:21:27.336Z,16.80
2022-08-12T01:24:32.143Z,16.80
2022-08-12T01:27:00.285Z,16.80
2022-08-12T01:29:32.796Z,16.80
2022-08-12T01:32:08.595Z,16.80
2022-08-12T01:34:38.363Z,16.80
2022-08-12T01:37:07.990Z,16.80
2022-08-12T01:40:33.302Z,16.80
2022-08-12T01:42:34.409Z,16.80
2022-08-12T01:45:03.179Z,16.80
2022-08-12T01:47:54.061Z,16.70
2022-08-12T01:50:30.272Z,16.60
2022-08-12T01:53:00.939Z,16.60
2022-08-12T01:55:33.370Z,16.50
2022-08-12T01:59:04.717Z,16.50
2022-08-12T02:01:39.385Z,16.40
2022-08-12T02:04:53.181Z,16.40
2022-08-12T02:08:16.369Z,16.40
2022-08-12T02:11:17.346Z,16.40
2022-08-12T02:14:00.158Z,16.40
2022-08-12T02:16:51.103Z,16.40
2022-08-12T02:19:22.318Z,16.40
2022-08-12T02:22:08.398Z,16.40
2022-08-12T02:24:38.563Z,16.40
2022-08-12T02:27:10.604Z,16.40
2022-08-12T02:29:39.040Z,16.30
2022-08-12T02:32:06.414Z,16.10
2022-08-12T02:34:34.044Z,16.00
2022-08-12T02:37:03.667Z,16.10
2022-08-12T02:39:34.218Z,16.10
2022-08-12T02:42:04.642Z,16.10
2022-08-12T02:44:40.153Z,16.00
2022-08-12T02:47:08.593Z,16.10
2022-08-12T02:49:58.397Z,16.00
2022-08-12T02:52:27.459Z,15.90
2022-08-12T02:55:01.440Z,15.90
2022-08-12T02:57:31.586Z,15.80
2022-08-12T02:59:59.006Z,15.70
2022-08-12T03:02:28.679Z,15.70
2022-08-12T03:04:57.382Z,15.50
2022-08-12T03:07:28.836Z,15.30
2022-08-12T03:10:14.628Z,15.30
2022-08-12T03:12:50.958Z,15.30
2022-08-12T03:15:22.219Z,15.40
2022-08-12T03:18:26.309Z,15.50
2022-08-12T03:21:00.304Z,15.60
2022-08-12T03:23:31.142Z,15.70
2022-08-12T03:26:02.640Z,15.70
2022-08-12T03:28:53.461Z,15.60
2022-08-12T03:31:29.921Z,15.50
2022-08-12T03:34:12.617Z,15.50
2022-08-12T03:36:42.179Z,15.50
2022-08-12T03:39:17.910Z,15.50
2022-08-12T03:42:09.468Z,15.50
2022-08-12T03:45:20.447Z,15.50
2022-08-12T03:48:27.394Z,15.50
2022-08-12T03:51:14.041Z,15.40
2022-08-12T03:53:59.966Z,15.30
2022-08-12T03:56:45.580Z,15.30
2022-08-12T03:59:31.574Z,15.30
2022-08-12T04:01:58.703Z,15.30
2022-08-12T04:04:28.515Z,15.30
2022-08-12T04:06:57.983Z,15.30
2022-08-12T04:09:25.121Z,15.30
2022-08-12T04:12:10.538Z,15.40
2022-08-12T04:14:37.668Z,15.40
2022-08-12T04:17:04.850Z,15.50
2022-08-12T04:19:31.742Z,15.40
2022-08-12T04:22:01.839Z,15.30
2022-08-12T04:24:36.274Z,15.30
2022-08-12T04:27:09.139Z,15.40
2022-08-12T04:30:29.786Z,15.30
2022-08-12T04:32:28.272Z,15.20
2022-08-12T04:34:56.381Z,15.10
2022-08-12T04:37:23.312Z,15.10
2022-08-12T04:39:51.219Z,15.00
2022-08-12T04:42:20.017Z,15.10
2022-08-12T04:44:47.205Z,15.10
2022-08-12T04:47:15.305Z,15.10
2022-08-12T04:49:44.824Z,15.00
2022-08-12T04:52:12.242Z,15.00
2022-08-12T04:54:39.173Z,15.00
2022-08-12T04:57:09.337Z,15.10
2022-08-12T04:59:46.946Z,15.10
2022-08-12T05:02:20.414Z,15.30
2022-08-12T05:04:51.148Z,15.40
2022-08-12T05:07:17.931Z,15.40
2022-08-12T05:09:59.238Z,15.70
2022-08-12T05:12:37.805Z,15.90
2022-08-12T05:15:12.785Z,16.30
2022-08-12T05:17:55.671Z,16.60
2022-08-12T05:20:23.040Z,16.90
2022-08-12T05:22:52.220Z,17.20
2022-08-12T05:25:23.647Z,17.50
2022-08-12T05:27:55.556Z,17.80
2022-08-12T05:30:26.272Z,18.00
2022-08-12T05:32:55.510Z,18.30
2022-08-12T05:35:22.767Z,18.60
2022-08-12T05:38:13.910Z,18.70
2022-08-12T05:40:41.741Z,18.80
2022-08-12T05:43:08.546Z,19.10
2022-08-12T05:45:35.404Z,19.30
2022-08-12T05:48:02.658Z,19.20
2022-08-12T05:50:29.466Z,19.10
2022-08-12T05:52:56.329Z,18.90
2022-08-12T05:55:26.960Z,18.80
2022-08-12T05:57:57.284Z,18.70
2022-08-12T06:00:25.937Z,19.20
2022-08-12T06:03:02.437Z,19.70
2022-08-12T06:05:29.814Z,20.10
2022-08-12T06:08:02.835Z,20.20
2022-08-12T06:10:32.318Z,20.30
2022-08-12T06:13:04.180Z,20.60
2022-08-12T06:15:33.059Z,20.70
2022-08-12T06:18:13.119Z,20.80
2022-08-12T06:20:43.257Z,20.70
2022-08-12T06:23:10.913Z,20.60
2022-08-12T06:25:37.701Z,20.60
2022-08-12T06:28:15.768Z,20.90
2022-08-12T06:30:57.253Z,20.60
2022-08-12T06:33:55.176Z,20.80
2022-08-12T06:36:22.753Z,21.20
2022-08-12T06:38:50.560Z,21.50
2022-08-12T06:41:36.902Z,21.90
2022-08-12T06:44:05.800Z,21.90
2022-08-12T06:46:36.987Z,22.00
2022-08-12T06:49:04.402Z,22.10
2022-08-12T06:51:32.292Z,22.10
2022-08-12T06:54:00.697Z,22.00
2022-08-12T06:56:59.651Z,22.30
2022-08-12T06:59:15.963Z,22.30
2022-08-12T07:01:49.796Z,22.30
2022-08-12T07:04:39.064Z,22.30
2022-08-12T07:07:10.179Z,22.00
2022-08-12T07:10:01.227Z,22.10
2022-08-12T07:12:36.554Z,22.10
2022-08-12T07:15:04.464Z,22.40
2022-08-12T07:17:39.060Z,22.60
2022-08-12T07:20:29.613Z,22.60
2022-08-12T07:22:59.813Z,22.80
2022-08-12T07:25:37.615Z,23.00
2022-08-12T07:28:18.660Z,23.20
2022-08-12T07:30:49.466Z,23.20
2022-08-12T07:33:18.478Z,23.00
2022-08-12T07:35:47.920Z,23.10
2022-08-12T07:38:29.087Z,23.30
2022-08-12T07:41:15.987Z,23.40
2022-08-12T07:43:53.798Z,23.50
2022-08-12T07:46:31.681Z,23.60
2022-08-12T07:49:01.726Z,23.70
2022-08-12T07:51:31.537Z,24.00
2022-08-12T07:54:03.033Z,24.30
2022-08-12T07:56:31.514Z,24.10
2022-08-12T07:59:01.330Z,24.20
2022-08-12T08:01:29.134Z,24.40
2022-08-12T08:04:18.783Z,24.60
2022-08-12T08:06:47.325Z,24.70
2022-08-12T08:09:16.140Z,24.90
2022-08-12T08:12:01.413Z,24.70
2022-08-12T08:14:32.926Z,24.40
2022-08-12T08:17:03.311Z,24.40
2022-08-12T08:19:32.051Z,24.10
2022-08-12T08:21:59.274Z,24.40
2022-08-12T08:24:27.952Z,24.60
2022-08-12T08:26:58.353Z,24.50
2022-08-12T08:29:26.782Z,24.60
2022-08-12T08:32:06.142Z,24.70
2022-08-12T08:34:53.971Z,24.70
2022-08-12T08:37:21.516Z,25.00
2022-08-12T08:39:50.119Z,25.00
2022-08-12T08:42:35.588Z,24.80
2022-08-12T08:45:12.828Z,24.40
2022-08-12T08:47:43.983Z,24.70
2022-08-12T08:50:10.846Z,24.80
2022-08-12T08:52:40.340Z,24.90
2022-08-12T08:55:09.658Z,24.50
2022-08-12T08:57:44.153Z,24.40
2022-08-12T09:00:19.821Z,24.10
2022-08-12T09:02:49.323Z,24.00
2022-08-12T09:05:26.079Z,24.20
2022-08-12T09:08:08.936Z,24.30
2022-08-12T09:10:45.126Z,24.60
2022-08-12T09:13:29.154Z,24.10
2022-08-12T09:16:19.998Z,23.90
2022-08-12T09:18:48.081Z,24.10
2022-08-12T09:21:19.837Z,24.30
2022-08-12T09:23:57.143Z,24.30
2022-08-12T09:26:29.695Z,24.20
2022-08-12T09:28:57.723Z,23.90
2022-08-12T09:32:06.694Z,24.10
2022-08-12T09:34:28.602Z,24.00
2022-08-12T09:37:03.003Z,23.40
2022-08-12T09:40:03.158Z,23.30
2022-08-12T09:43:11.741Z,23.20
2022-08-12T09:46:19.642Z,23.30
2022-08-12T09:48:26.567Z,23.30
2022-08-12T09:51:02.178Z,23.50
2022-08-12T09:53:36.307Z,23.60
2022-08-12T09:57:00.684Z,23.80
2022-08-12T09:59:00.026Z,24.10
2022-08-12T10:01:34.375Z,23.90
2022-08-12T10:04:05.089Z,23.70
2022-08-12T10:06:35.890Z,24.00
2022-08-12T10:09:08.682Z,24.20
2022-08-12T10:12:11.908Z,24.30
2022-08-12T10:14:39.873Z,24.10
2022-08-12T10:17:18.586Z,24.10
2022-08-12T10:19:51.588Z,24.10
2022-08-12T10:22:39.281Z,24.30
2022-08-12T10:26:36.751Z,24.70
2022-08-12T10:28:31.697Z,25.20
2022-08-12T10:30:59.637Z,25.40
2022-08-12T10:33:30.937Z,25.50
2022-08-12T10:35:59.699Z,25.80
2022-08-12T10:38:35.404Z,25.60
2022-08-12T10:41:58.075Z,25.60
2022-08-12T10:44:16.896Z,25.60
2022-08-12T10:46:49.295Z,25.60
2022-08-12T10:50:04.572Z,25.80
2022-08-12T10:52:33.144Z,25.80
2022-08-12T10:54:55.493Z,25.70
2022-08-12T10:58:14.138Z,26.20
2022-08-12T11:00:34.427Z,26.60
2022-08-12T11:04:24.947Z,26.60
2022-08-12T11:07:06.338Z,26.30
2022-08-12T11:08:42.789Z,26.30
2022-08-12T11:11:13.917Z,26.50
2022-08-12T11:13:48.976Z,26.60
2022-08-12T11:16:21.742Z,26.50
2022-08-12T11:18:55.368Z,26.50
2022-08-12T11:21:56.327Z,26.60
2022-08-12T11:24:18.853Z,26.20
2022-08-12T11:26:58.657Z,26.60
2022-08-12T11:29:27.707Z,26.60
2022-08-12T11:32:14.346Z,26.70
2022-08-12T11:34:53.024Z,27.20
2022-08-12T11:37:25.824Z,27.50
2022-08-12T11:42:37.247Z,27.40
2022-08-12T11:45:10.568Z,27.30
2022-08-12T11:47:40.208Z,27.80
2022-08-12T11:50:08.050Z,28.00
2022-08-12T11:52:56.707Z,27.80
2022-08-12T11:55:24.608Z,27.90
2022-08-12T11:58:40.498Z,28.00
2022-08-12T12:03:45.832Z,27.20
2022-08-12T12:06:17.769Z,26.70
2022-08-12T12:08:50.481Z,26.20
2022-08-12T12:11:18.754Z,26.50
2022-08-12T12:14:08.743Z,27.00
2022-08-12T12:16:33.630Z,27.30
2022-08-12T12:19:10.049Z,27.80
2022-08-12T12:21:47.284Z,27.90
2022-08-12T12:24:21.150Z,28.10
2022-08-12T12:27:00.002Z,28.20
2022-08-12T12:30:17.688Z,28.30
2022-08-12T12:32:29.621Z,28.20
2022-08-12T12:35:14.517Z,27.80
2022-08-12T12:38:05.242Z,28.10
2022-08-12T12:40:40.928Z,28.60
2022-08-12T12:43:08.873Z,28.70
2022-08-12T12:45:37.224Z,28.40
2022-08-12T12:48:07.838Z,27.60
2022-08-12T12:50:45.085Z,27.00
2022-08-12T12:54:06.982Z,27.20
2022-08-12T12:56:05.482Z,27.60
2022-08-12T12:58:32.246Z,28.10
2022-08-12T13:00:59.912Z,28.30
2022-08-12T13:03:35.413Z,28.50
2022-08-12T13:06:16.067Z,28.20
2022-08-12T13:08:46.787Z,27.90
2022-08-12T13:11:14.707Z,27.50
2022-08-12T13:14:08.567Z,27.10
2022-08-12T13:16:29.683Z,27.00
2022-08-12T13:18:56.960Z,27.30
2022-08-12T13:21:32.693Z,27.60
2022-08-12T13:24:02.683Z,28.00
2022-08-12T13:26:39.916Z,28.70
2022-08-12T13:29:11.142Z,29.10
2022-08-12T13:31:46.398Z,28.70
2022-08-12T13:34:32.053Z,28.60
2022-08-12T13:37:09.737Z,28.30
2022-08-12T13:39:37.659Z,28.40
2022-08-12T13:42:13.731Z,28.10
2022-08-12T13:44:42.316Z,28.30
2022-08-12T13:47:19.743Z,28.40
2022-08-12T13:49:55.251Z,28.50
2022-08-12T13:52:23.574Z,28.70
2022-08-12T13:54:56.173Z,28.40
2022-08-12T13:57:44.377Z,28.80
2022-08-12T14:00:15.465Z,28.50
2022-08-12T14:02:43.541Z,28.20
2022-08-12T14:05:37.479Z,28.30
2022-08-12T14:08:05.982Z,28.80
2022-08-12T14:10:51.081Z,29.10
2022-08-12T14:14:05.836Z,29.10
2022-08-12T14:16:46.637Z,28.60
2022-08-12T14:19:10.554Z,28.50
2022-08-12T14:22:01.531Z,28.30
2022-08-12T14:24:35.819Z,28.30
2022-08-12T14:27:09.219Z,28.50
2022-08-12T14:30:04.870Z,28.70
2022-08-12T14:32:34.654Z,28.70
2022-08-12T14:35:03.885Z,28.40
2022-08-12T14:37:56.406Z,28.50
2022-08-12T14:40:18.594Z,28.40
2022-08-12T14:42:52.646Z,28.10
2022-08-12T14:45:23.065Z,28.00
2022-08-12T14:47:53.616Z,27.50
2022-08-12T14:50:57.592Z,27.70
2022-08-12T14:55:18.159Z,27.50
2022-08-12T14:59:20.445Z,27.70
2022-08-12T15:01:52.135Z,27.30
2022-08-12T15:04:28.578Z,27.70
2022-08-12T15:06:56.393Z,27.50
2022-08-12T15:09:29.280Z,27.30
2022-08-12T15:12:03.073Z,26.90
2022-08-12T15:14:30.638Z,26.50
2022-08-12T15:17:00.535Z,26.60
2022-08-12T15:20:28.059Z,27.00
2022-08-12T15:22:38.340Z,27.20
2022-08-12T15:25:07.429Z,27.50
2022-08-12T15:28:05.498Z,27.50
2022-08-12T15:30:30.340Z,27.20
2022-08-12T15:32:57.337Z,26.70
2022-08-12T15:35:27.498Z,26.30
2022-08-12T15:38:10.095Z,25.90
2022-08-12T15:40:48.253Z,25.90
2022-08-12T15:44:16.119Z,25.90
2022-08-12T15:46:08.069Z,26.00
2022-08-12T15:48:44.120Z,25.80
2022-08-12T15:51:59.324Z,25.40
2022-08-12T15:54:35.076Z,25.30
2022-08-12T15:57:05.614Z,25.30
2022-08-12T16:00:04.431Z,25.20
2022-08-12T16:02:20.499Z,24.90
2022-08-12T16:04:50.305Z,24.80
2022-08-12T16:07:26.041Z,24.60
2022-08-12T16:10:05.407Z,24.60
2022-08-12T16:12:41.995Z,24.60
2022-08-12T16:15:11.847Z,24.50
2022-08-12T16:18:18.915Z,24.30
2022-08-12T16:20:33.792Z,24.10
2022-08-12T16:23:04.183Z,24.00
2022-08-12T16:26:00.239Z,23.90
2022-08-12T16:28:18.042Z,23.70
2022-08-12T16:30:50.040Z,23.80
2022-08-12T16:33:18.796Z,23.70
2022-08-12T16:35:49.789Z,23.60
2022-08-12T16:38:26.045Z,23.50
2022-08-12T16:40:54.829Z,23.50
2022-08-12T16:43:27.535Z,23.50
2022-08-12T16:46:07.691Z,23.50
2022-08-12T16:48:44.446Z,23.50
2022-08-12T16:51:13.493Z,23.40
2022-08-12T16:53:44.654Z,23.30
2022-08-12T16:56:15.805Z,23.30
2022-08-12T16:58:44.382Z,23.10
2022-08-12T17:01:15.492Z,23.20
2022-08-12T17:03:52.491Z,23.20
2022-08-12T17:06:22.463Z,23.40
2022-08-12T17:09:02.596Z,23.50
2022-08-12T17:11:32.954Z,23.50
2022-08-12T17:14:00.077Z,23.40
2022-08-12T17:16:30.003Z,23.40
2022-08-12T17:19:03.287Z,23.40
2022-08-12T17:21:40.767Z,23.50
2022-08-12T17:24:21.480Z,23.40
2022-08-12T17:26:50.089Z,23.30
2022-08-12T17:29:19.568Z,23.30
2022-08-12T17:32:02.795Z,23.10
2022-08-12T17:34:51.301Z,22.90
2022-08-12T17:37:18.219Z,22.80
2022-08-12T17:40:12.216Z,22.70
2022-08-12T17:42:35.668Z,22.60
2022-08-12T17:45:18.484Z,22.60
2022-08-12T17:48:02.211Z,22.60
2022-08-12T17:50:36.713Z,22.50
2022-08-12T17:53:04.888Z,22.40
2022-08-12T17:55:43.690Z,22.30
2022-08-12T17:58:14.758Z,22.30
2022-08-12T18:00:44.371Z,22.20
2022-08-12T18:04:04.940Z,22.10
2022-08-12T18:06:14.296Z,21.90
2022-08-12T18:08:54.238Z,21.90
2022-08-12T18:12:03.698Z,21.80
2022-08-12T18:14:29.592Z,21.70
2022-08-12T18:17:00.438Z,21.60
2022-08-12T18:19:34.219Z,21.60
2022-08-12T18:22:22.196Z,21.60
2022-08-12T18:25:02.158Z,21.50
2022-08-12T18:27:44.445Z,21.40
2022-08-12T18:30:29.054Z,21.30
2022-08-12T18:33:04.309Z,21.20
2022-08-12T18:35:46.257Z,21.20
2022-08-12T18:38:19.375Z,21.00
2022-08-12T18:41:07.350Z,20.90
2022-08-12T18:43:57.499Z,20.80
2022-08-12T18:46:34.815Z,20.80
2022-08-12T18:49:17.087Z,20.70
2022-08-12T18:51:55.168Z,20.70
2022-08-12T18:54:32.353Z,20.60
2022-08-12T18:57:03.822Z,20.50
2022-08-12T19:00:01.172Z,20.50
2022-08-12T19:02:21.413Z,20.50
2022-08-12T19:04:52.884Z,20.40
2022-08-12T19:07:25.390Z,20.40
2022-08-12T19:09:59.947Z,20.20
2022-08-12T19:12:57.402Z,20.20
2022-08-12T19:15:26.725Z,20.20
2022-08-12T19:18:00.737Z,20.20
2022-08-12T19:20:30.699Z,20.30
2022-08-12T19:22:59.894Z,20.20
2022-08-12T19:25:59.421Z,20.10
2022-08-12T19:28:29.993Z,20.20
2022-08-12T19:31:45.146Z,20.30
2022-08-12T19:35:32.918Z,20.20
2022-08-12T19:38:02.519Z,20.10
2022-08-12T19:40:32.821Z,20.00
2022-08-12T19:43:21.799Z,20.00
2022-08-12T19:45:53.145Z,19.80
2022-08-12T19:48:23.284Z,19.80
2022-08-12T19:50:53.354Z,19.80
2022-08-12T19:53:22.873Z,19.70
2022-08-12T19:55:53.087Z,19.60
2022-08-12T19:58:21.124Z,19.40
2022-08-12T20:00:53.179Z,19.50
2022-08-12T20:03:38.485Z,19.50
2022-08-12T20:06:11.293Z,19.40
2022-08-12T20:08:49.366Z,19.50
2022-08-12T20:12:11.455Z,19.60
2022-08-12T20:14:10.062Z,19.60
2022-08-12T20:19:52.280Z,19.40
2022-08-12T20:22:24.955Z,19.30
2022-08-12T20:25:00.936Z,19.30
2022-08-12T20:28:04.603Z,19.20
2022-08-12T20:30:20.195Z,19.20
2022-08-12T20:32:58.422Z,19.00
2022-08-12T20:36:06.967Z,18.80
2022-08-12T20:38:26.945Z,18.80
2022-08-12T20:40:55.520Z,18.70
2022-08-12T20:43:24.098Z,18.70
2022-08-12T20:45:58.074Z,18.80
2022-08-12T20:48:26.206Z,18.90
2022-08-12T20:51:04.062Z,18.80
2022-08-12T20:53:58.110Z,18.80
2022-08-12T20:56:31.166Z,18.60
2022-08-12T20:58:59.957Z,18.70
2022-08-12T21:01:36.461Z,18.70
2022-08-12T21:04:31.799Z,18.60
2022-08-12T21:07:04.652Z,18.60
2022-08-12T21:10:06.020Z,18.50
2022-08-12T21:12:37.720Z,18.40
2022-08-12T21:15:22.839Z,18.30
2022-08-12T21:18:11.047Z,18.30
2022-08-12T21:20:52.959Z,18.30
2022-08-12T21:23:23.882Z,18.20
2022-08-12T21:26:01.037Z,18.10
2022-08-12T21:28:31.144Z,18.00
2022-08-12T21:32:34.533Z,18.10
2022-08-12T21:34:06.952Z,18.00
2022-08-12T21:36:43.062Z,18.00
2022-08-12T21:39:20.089Z,18.00
2022-08-12T21:41:53.124Z,18.00
2022-08-12T21:44:24.244Z,18.10
2022-08-12T21:47:20.087Z,17.90
2022-08-12T21:50:02.306Z,17.80
2022-08-12T21:52:34.584Z,17.80
2022-08-12T21:55:04.673Z,17.60
2022-08-12T21:57:51.006Z,17.70
2022-08-12T22:00:33.073Z,17.60
2022-08-12T22:04:07.853Z,17.70
2022-08-12T22:06:26.044Z,17.70
2022-08-12T22:09:03.656Z,17.80
2022-08-12T22:11:41.847Z,17.90
2022-08-12T22:14:21.252Z,17.80
2022-08-12T22:16:52.486Z,17.80
2022-08-12T22:19:20.860Z,17.70
2022-08-12T22:21:53.354Z,17.50
2022-08-12T22:24:26.313Z,17.50
2022-08-12T22:26:57.795Z,17.40
2022-08-12T22:29:43.429Z,17.50
2022-08-12T22:32:11.979Z,17.50
2022-08-12T22:34:39.176Z,17.40
2022-08-12T22:37:11.115Z,17.40
2022-08-12T22:39:43.841Z,17.40
2022-08-12T22:42:30.611Z,17.40
2022-08-12T22:45:16.659Z,17.40
2022-08-12T22:47:53.641Z,17.40
2022-08-12T22:50:28.529Z,17.20
2022-08-12T22:53:16.027Z,17.20
2022-08-12T22:55:59.576Z,17.20
2022-08-12T22:58:33.534Z,17.20
2022-08-12T23:01:02.544Z,17.20
2022-08-12T23:03:47.956Z,17.10
2022-08-12T23:06:19.403Z,17.20
2022-08-12T23:08:46.879Z,17.20
2022-08-12T23:11:14.930Z,17.20
2022-08-12T23:13:54.696Z,17.20
2022-08-12T23:16:29.546Z,17.20
2022-08-12T23:19:38.034Z,17.20
2022-08-12T23:22:35.743Z,17.20
2022-08-12T23:24:56.174Z,17.10
2022-08-12T23:27:52.336Z,17.00
2022-08-12T23:30:32.049Z,17.00
2022-08-12T23:33:03.172Z,16.90
2022-08-12T23:36:02.288Z,16.80
2022-08-12T23:38:32.288Z,16.70
2022-08-12T23:41:05.589Z,16.70
2022-08-12T23:43:39.181Z,16.70
2022-08-12T23:46:09.162Z,16.70
2022-08-12T23:48:37.816Z,16.70
2022-08-12T23:51:22.705Z,16.80
2022-08-12T23:54:00.335Z,16.60
2022-08-12T23:56:33.693Z,16.60
2022-08-12T23:59:03.170Z,16.60
